North Hills, New York
Current Conditions -  °F | °C
As of 7:51 PM on Friday 24 Oct 2014 (Local Time) from KJFK Reporting Station
Broken Clouds Broken Clouds  
Wind Chill: 54°   Ceiling: 25000
Heat Index: 54°   Visibility: 10mi
Dew Point: 45°   Wind: 3mph
Humidity: 72%   Direction: 80°E
Pressure: 29.81"   Gusts: NA
Location:  40.7459°N, 73.6798°W
Report Text: KJFK 242351Z 08003KT 10SM FEW049 SCT120 BKN250 12/07 A2981 RMK AO2 SLP096 T01220072 10172 20122 53013
Loading
Personal Weather Stations






























Interactive Weather Map
Tropical Storm Tracking
New forecast layout! Learn more

10-Day Weather Forecast

Advertisements
Track Severe Weather on mobile